Time;durP1;ratioP1;P1;durP2;ratioP2;P2;SDS_P1;SDS_P2;PMS_P1;PMS_P2;Temp;Humidity;BMP_temperature;BMP_pressure;BME280_temperature;BME280_humidity;BME280_pressure;Samples;Min_cycle;Max_cycle;Signal;HPM_P1;HPM_P2
2022/01/23 00:00:31;;;;;;;13.65;6.93;;;3.00;99.90;;;;;;5044988;28;20511;-62
2022/01/23 00:03:00;;;;;;;11.57;7.20;;;3.00;99.90;;;;;;5081574;28;20032;-62
2022/01/23 00:05:33;;;;;;;10.40;6.57;;;3.10;99.90;;;;;;5075009;28;20044;-61
2022/01/23 00:08:00;;;;;;;13.30;7.85;;;3.10;99.90;;;;;;5080163;28;20040;-61
2022/01/23 00:10:26;;;;;;;13.60;7.65;;;3.10;99.90;;;;;;5074172;28;20127;-60
2022/01/23 00:13:01;;;;;;;12.73;7.80;;;3.00;99.90;;;;;;5079950;28;20032;-61
2022/01/23 00:18:11;;;;;;;14.48;7.90;;;3.00;99.90;;;;;;5067749;28;20040;-61
2022/01/23 00:20:37;;;;;;;13.52;8.25;;;3.10;99.90;;;;;;5061173;28;20047;-61
2022/01/23 00:23:12;;;;;;;15.02;7.57;;;3.20;99.90;;;;;;5058400;28;20036;-62
2022/01/23 00:31:17;;;;;;;15.23;8.27;;;3.20;99.90;;;;;;5064329;28;20028;-60
2022/01/23 00:33:42;;;;;;;16.20;8.38;;;3.10;99.90;;;;;;5059837;28;20557;-61
2022/01/23 00:36:08;;;;;;;15.45;8.20;;;3.10;99.90;;;;;;5067323;28;20478;-61
2022/01/23 00:38:35;;;;;;;15.60;8.00;;;3.20;99.90;;;;;;5063220;28;20121;-61
2022/01/23 00:41:00;;;;;;;14.27;7.78;;;3.20;99.90;;;;;;5063315;28;20045;-61
2022/01/23 00:43:31;;;;;;;12.20;7.13;;;3.20;99.90;;;;;;5067756;28;20032;-61
2022/01/23 00:46:10;;;;;;;12.18;7.53;;;3.20;99.90;;;;;;5067908;28;20099;-62
2022/01/23 00:48:50;;;;;;;9.77;5.97;;;3.10;99.90;;;;;;5104036;28;20123;-61
2022/01/23 00:51:16;;;;;;;12.55;6.28;;;3.10;99.90;;;;;;5088208;28;20135;-62
2022/01/23 00:53:42;;;;;;;10.35;6.47;;;3.10;99.90;;;;;;5091292;28;20114;-58
2022/01/23 00:56:07;;;;;;;11.82;5.55;;;3.10;99.90;;;;;;5088459;28;20056;-61
2022/01/23 00:58:33;;;;;;;10.63;6.20;;;3.10;99.90;;;;;;5097233;28;20053;-62
2022/01/23 01:00:58;;;;;;;11.82;5.72;;;3.10;99.90;;;;;;5082032;28;20058;-62
2022/01/23 01:03:24;;;;;;;10.30;5.95;;;3.20;99.90;;;;;;5107696;28;20081;-62
2022/01/23 01:05:50;;;;;;;11.00;6.18;;;3.20;99.90;;;;;;5088870;28;20044;-62
2022/01/23 01:08:15;;;;;;;9.52;5.78;;;3.20;99.90;;;;;;5080400;28;20601;-61
2022/01/23 01:10:52;;;;;;;22.73;6.75;;;3.20;99.90;;;;;;5087192;27;20036;-61
2022/01/23 01:13:17;;;;;;;9.48;5.32;;;3.20;99.90;;;;;;5092429;28;20120;-62
2022/01/23 01:33:03;;;;;;;10.98;4.50;;;3.10;99.90;;;;;;5095345;28;20039;-60
2022/01/23 01:35:38;;;;;;;7.90;3.45;;;3.20;99.90;;;;;;5088443;28;20075;-59
2022/01/23 01:38:04;;;;;;;5.60;3.40;;;3.10;99.90;;;;;;5086415;28;20610;-60
2022/01/23 01:40:30;;;;;;;7.15;3.30;;;3.00;99.90;;;;;;5086405;28;20131;-60
2022/01/23 01:42:56;;;;;;;4.72;3.05;;;3.00;99.90;;;;;;5094557;28;20044;-60
2022/01/23 01:45:27;;;;;;;9.48;3.65;;;3.00;99.90;;;;;;5077972;28;20033;-59
2022/01/23 01:47:56;;;;;;;7.93;3.30;;;3.00;99.90;;;;;;5095010;28;20093;-59
2022/01/23 01:50:22;;;;;;;5.40;3.30;;;3.00;99.90;;;;;;5081522;28;20048;-59
2022/01/23 01:52:47;;;;;;;5.47;2.92;;;3.00;99.90;;;;;;5094619;28;20040;-60
2022/01/23 01:55:21;;;;;;;5.63;2.60;;;3.10;99.90;;;;;;5085166;28;20043;-60
2022/01/23 01:57:53;;;;;;;8.90;3.22;;;3.10;99.90;;;;;;5098631;28;20117;-60
2022/01/23 02:08:24;;;;;;;2.80;1.83;;;3.00;99.90;;;;;;5090525;28;20027;-60
2022/01/23 02:10:56;;;;;;;3.47;2.03;;;3.00;99.90;;;;;;5082854;28;20465;-59
2022/01/23 02:13:28;;;;;;;3.47;2.35;;;3.00;99.90;;;;;;5096684;28;20100;-60
2022/01/23 02:24:21;;;;;;;4.60;2.10;;;2.90;99.90;;;;;;5084292;28;20040;-59
2022/01/23 02:57:05;;;;;;;3.58;1.65;;;2.80;99.90;;;;;;5093611;28;20043;-61
2022/01/23 02:59:35;;;;;;;4.65;2.03;;;2.80;99.90;;;;;;5090793;28;20048;-61
2022/01/23 03:02:10;;;;;;;2.05;1.42;;;2.80;99.90;;;;;;5091584;28;20059;-61
2022/01/23 03:04:40;;;;;;;3.92;2.05;;;2.80;99.90;;;;;;5085694;28;20064;-59
2022/01/23 03:31:32;;;;;;;4.28;1.67;;;2.90;99.90;;;;;;5095720;28;20039;-59
2022/01/23 03:33:59;;;;;;;3.42;1.77;;;2.90;99.90;;;;;;5083214;28;20054;-60
2022/01/23 03:36:25;;;;;;;3.58;1.50;;;2.90;99.90;;;;;;5088457;28;20416;-61
2022/01/23 03:38:51;;;;;;;2.85;1.88;;;2.90;99.90;;;;;;5091649;28;20040;-61
2022/01/23 03:41:16;;;;;;;5.05;1.75;;;2.80;99.90;;;;;;5091798;28;20032;-61
2022/01/23 03:43:42;;;;;;;4.28;2.08;;;2.80;99.90;;;;;;5089564;28;20035;-61
2022/01/23 03:51:38;;;;;;;5.75;2.30;;;2.80;99.90;;;;;;5081032;28;20031;-61
2022/01/23 03:54:04;;;;;;;4.75;2.20;;;2.80;99.90;;;;;;5088897;28;20412;-61
2022/01/23 03:56:31;;;;;;;5.80;2.03;;;2.80;99.90;;;;;;5081808;28;20123;-62
2022/01/23 03:58:58;;;;;;;4.68;2.05;;;2.80;99.90;;;;;;5093551;28;20772;-59
2022/01/23 04:01:24;;;;;;;3.83;1.88;;;2.90;99.90;;;;;;5089127;28;20077;-61
2022/01/23 04:03:51;;;;;;;4.68;2.33;;;2.90;99.90;;;;;;5096603;28;20036;-61
2022/01/23 04:06:16;;;;;;;7.05;2.53;;;2.90;99.90;;;;;;5084906;28;20051;-61
2022/01/23 04:08:42;;;;;;;4.68;2.28;;;2.80;99.90;;;;;;5096135;28;20032;-61
2022/01/23 04:11:08;;;;;;;4.85;2.90;;;2.80;99.90;;;;;;5089359;28;20032;-59
2022/01/23 04:13:46;;;;;;;7.95;2.67;;;2.80;99.90;;;;;;5096880;28;20482;-61
2022/01/23 04:19:10;;;;;;;4.38;2.40;;;2.90;99.90;;;;;;5085810;28;20062;-61
2022/01/23 04:45:40;;;;;;;7.80;2.33;;;2.90;99.90;;;;;;5075092;28;20033;-62
2022/01/23 05:01:22;;;;;;;7.85;2.97;;;2.90;99.90;;;;;;5080599;28;20142;-61
2022/01/23 05:06:35;;;;;;;11.25;3.03;;;2.70;99.90;;;;;;5092702;28;20066;-60
2022/01/23 05:09:01;;;;;;;7.82;2.42;;;2.80;99.90;;;;;;5076398;28;20063;-61
2022/01/23 05:11:26;;;;;;;4.38;2.40;;;2.90;99.90;;;;;;5082898;28;20040;-61
2022/01/23 05:13:52;;;;;;;3.13;2.05;;;2.90;99.90;;;;;;5091458;28;20115;-61
2022/01/23 05:16:19;;;;;;;6.65;2.38;;;2.80;99.90;;;;;;5091099;28;20113;-61
2022/01/23 05:18:44;;;;;;;6.82;1.98;;;2.70;99.90;;;;;;5097367;28;20040;-62
2022/01/23 05:23:55;;;;;;;3.85;2.00;;;2.80;99.90;;;;;;5096681;28;20032;-59
2022/01/23 05:26:21;;;;;;;3.67;2.05;;;2.90;99.90;;;;;;5092583;28;20052;-61
2022/01/23 05:28:46;;;;;;;4.68;2.42;;;2.90;99.90;;;;;;5087526;27;20052;-61
2022/01/23 05:31:12;;;;;;;5.45;2.47;;;2.90;99.90;;;;;;5091922;28;20539;-62
2022/01/23 05:33:38;;;;;;;4.72;2.60;;;2.90;99.90;;;;;;5097122;28;20032;-62
2022/01/23 05:36:05;;;;;;;7.60;3.10;;;2.90;99.90;;;;;;5088866;28;20036;-61
2022/01/23 05:38:31;;;;;;;8.68;3.28;;;2.80;99.90;;;;;;5091535;28;20044;-61
2022/01/23 05:40:57;;;;;;;6.30;2.70;;;2.90;99.90;;;;;;5088158;28;20040;-61
2022/01/23 05:43:24;;;;;;;6.72;3.15;;;2.90;99.90;;;;;;5076520;28;20047;-61
2022/01/23 05:45:50;;;;;;;6.82;3.63;;;2.90;99.90;;;;;;5087544;28;20529;-61
2022/01/23 05:48:16;;;;;;;5.65;3.10;;;2.90;99.90;;;;;;5092132;28;20031;-61
2022/01/23 05:50:43;;;;;;;4.93;3.08;;;2.90;99.90;;;;;;5087158;28;20031;-60
2022/01/23 05:53:08;;;;;;;8.52;4.68;;;2.90;99.90;;;;;;5092707;28;20047;-60
2022/01/23 05:55:34;;;;;;;7.95;2.80;;;3.00;99.90;;;;;;5087999;28;20040;-60
2022/01/23 05:57:59;;;;;;;8.55;3.20;;;3.00;99.90;;;;;;5094382;28;20472;-60
2022/01/23 06:00:25;;;;;;;7.82;3.30;;;2.90;99.90;;;;;;5082814;28;20048;-58
2022/01/23 06:02:52;;;;;;;9.45;3.67;;;2.90;99.90;;;;;;5096559;28;20032;-61
2022/01/23 06:05:17;;;;;;;12.43;3.95;;;2.80;99.90;;;;;;5088214;28;20063;-61
2022/01/23 06:07:43;;;;;;;6.82;2.92;;;2.80;99.90;;;;;;5090337;27;20082;-60
2022/01/23 06:10:19;;;;;;;8.10;3.33;;;2.80;99.90;;;;;;5075931;27;20040;-61
2022/01/23 06:12:44;;;;;;;8.20;3.15;;;2.90;99.90;;;;;;5084295;28;20039;-61
2022/01/23 06:15:10;;;;;;;11.65;3.88;;;2.90;99.90;;;;;;5078616;28;20059;-60
2022/01/23 06:17:36;;;;;;;5.60;3.50;;;2.80;99.90;;;;;;5096178;28;20078;-62
2022/01/23 06:20:02;;;;;;;8.20;3.33;;;2.80;99.90;;;;;;5074007;28;20040;-62
2022/01/23 06:22:28;;;;;;;5.70;3.30;;;2.80;99.90;;;;;;5094923;28;20067;-63
2022/01/23 06:24:53;;;;;;;9.07;3.03;;;2.80;99.90;;;;;;5089380;28;20491;-62
2022/01/23 06:27:19;;;;;;;10.65;3.58;;;2.90;99.90;;;;;;5088615;28;20147;-62
2022/01/23 06:29:45;;;;;;;6.50;3.60;;;2.90;99.90;;;;;;5085694;28;20039;-61
2022/01/23 06:32:12;;;;;;;7.15;3.42;;;2.90;99.90;;;;;;5088639;28;20093;-61
2022/01/23 06:34:38;;;;;;;9.73;3.60;;;2.90;99.90;;;;;;5076660;28;20483;-61
2022/01/23 06:37:04;;;;;;;8.40;3.20;;;2.90;99.90;;;;;;5072562;28;20459;-61
2022/01/23 06:39:31;;;;;;;6.47;3.13;;;2.90;99.90;;;;;;5089057;28;20044;-63
2022/01/23 06:41:57;;;;;;;5.90;2.85;;;2.90;99.90;;;;;;5089250;28;20115;-61
2022/01/23 06:44:23;;;;;;;6.28;3.38;;;2.90;99.90;;;;;;5085928;28;20031;-56
2022/01/23 06:46:49;;;;;;;7.97;3.58;;;2.90;99.90;;;;;;5087107;27;20035;-58
2022/01/23 06:49:15;;;;;;;7.07;4.18;;;2.80;99.90;;;;;;5083842;28;20565;-60
2022/01/23 06:51:42;;;;;;;7.95;4.10;;;2.70;99.90;;;;;;5095058;28;20044;-61
2022/01/23 06:54:09;;;;;;;7.45;4.20;;;2.70;99.90;;;;;;5085093;28;20032;-61
2022/01/23 06:56:34;;;;;;;6.43;3.58;;;2.70;99.90;;;;;;5094773;28;20059;-61
2022/01/23 06:59:00;;;;;;;9.15;4.20;;;2.60;99.90;;;;;;5087978;28;20320;-61
2022/01/23 07:01:26;;;;;;;6.57;4.13;;;2.60;99.90;;;;;;5086091;28;20514;-61
2022/01/23 07:03:51;;;;;;;9.35;4.38;;;2.60;99.90;;;;;;5093501;28;20115;-61
2022/01/23 07:06:17;;;;;;;7.50;3.78;;;2.60;99.90;;;;;;5081187;28;20464;-60
2022/01/23 07:08:43;;;;;;;7.30;3.97;;;2.70;99.90;;;;;;5085461;28;20562;-60
2022/01/23 07:11:08;;;;;;;9.40;4.88;;;2.70;99.90;;;;;;5081544;28;20060;-61
2022/01/23 07:13:34;;;;;;;7.80;3.90;;;2.70;99.90;;;;;;5095878;28;20043;-61
2022/01/23 07:16:02;;;;;;;8.20;3.88;;;2.80;99.90;;;;;;5087505;28;20090;-63
2022/01/23 07:18:28;;;;;;;6.70;3.75;;;2.80;99.90;;;;;;5092642;28;20044;-61
2022/01/23 07:20:54;;;;;;;6.18;3.58;;;2.80;99.90;;;;;;5082223;28;20036;-61
2022/01/23 07:23:22;;;;;;;8.52;3.95;;;2.80;99.90;;;;;;5099086;28;20054;-61
2022/01/23 07:25:48;;;;;;;10.30;5.60;;;2.80;99.90;;;;;;5088074;28;20070;-61
2022/01/23 07:28:17;;;;;;;35.95;16.35;;;2.80;99.90;;;;;;5088837;28;20139;-60
2022/01/23 07:33:11;;;;;;;38.72;18.88;;;2.80;99.90;;;;;;5093272;28;20086;-62
2022/01/23 07:35:37;;;;;;;23.02;11.02;;;2.90;99.90;;;;;;5088283;28;20455;-61
2022/01/23 07:38:03;;;;;;;14.82;6.55;;;2.90;99.90;;;;;;5093585;28;20059;-60
2022/01/23 07:40:28;;;;;;;8.18;4.18;;;2.90;99.90;;;;;;5086894;28;20039;-61
2022/01/23 07:42:54;;;;;;;10.27;5.07;;;2.90;99.90;;;;;;5094470;28;20032;-64
2022/01/23 07:45:20;;;;;;;14.15;5.63;;;3.00;99.90;;;;;;5084676;28;20037;-63
2022/01/23 07:47:46;;;;;;;23.55;11.98;;;3.00;99.90;;;;;;5084420;28;20041;-63
2022/01/23 07:50:12;;;;;;;24.70;12.38;;;2.90;99.90;;;;;;5088860;28;20043;-65
2022/01/23 07:52:39;;;;;;;8.23;4.75;;;2.90;99.90;;;;;;5094531;27;20075;-63
2022/01/23 07:55:08;;;;;;;7.88;4.80;;;3.00;99.90;;;;;;5094187;28;20032;-64
2022/01/23 07:57:34;;;;;;;5.80;3.33;;;3.00;99.90;;;;;;5097854;28;20035;-63
2022/01/23 08:00:00;;;;;;;5.85;2.97;;;2.90;99.90;;;;;;5096547;28;20043;-62
2022/01/23 08:02:26;;;;;;;5.30;3.25;;;2.90;99.90;;;;;;5088307;28;20495;-62
2022/01/23 08:04:52;;;;;;;4.65;2.70;;;3.00;99.90;;;;;;5081868;28;20116;-63
2022/01/23 08:07:30;;;;;;;4.43;2.35;;;3.00;99.90;;;;;;5095830;28;20488;-63
2022/01/23 08:10:03;;;;;;;5.38;3.03;;;3.00;99.90;;;;;;5099510;27;20118;-62
2022/01/23 08:12:30;;;;;;;5.82;3.35;;;3.00;99.90;;;;;;5105885;28;20497;-63
2022/01/23 08:14:58;;;;;;;17.45;8.07;;;3.00;99.90;;;;;;5091273;28;20032;-58
2022/01/23 08:17:24;;;;;;;6.60;3.47;;;3.00;99.90;;;;;;5098367;28;20129;-60
2022/01/23 08:19:55;;;;;;;8.18;3.55;;;3.00;99.90;;;;;;5094453;28;20097;-60
2022/01/23 08:22:22;;;;;;;6.97;3.83;;;3.00;99.90;;;;;;5084769;28;20492;-61
2022/01/23 08:24:50;;;;;;;5.70;3.40;;;3.00;99.90;;;;;;5089450;28;20040;-59
2022/01/23 08:27:16;;;;;;;8.73;4.88;;;3.00;99.90;;;;;;5100102;28;20048;-58
2022/01/23 08:29:42;;;;;;;21.15;9.50;;;2.90;99.90;;;;;;5094340;28;20061;-61
2022/01/23 08:32:08;;;;;;;9.43;4.82;;;2.90;99.90;;;;;;5080711;28;20100;-62
2022/01/23 08:34:35;;;;;;;382.73;184.80;;;3.00;99.90;;;;;;5093927;28;20028;-64
2022/01/23 08:37:02;;;;;;;62.92;28.48;;;3.00;99.90;;;;;;5075616;28;20040;-63
2022/01/23 08:39:30;;;;;;;17.83;7.88;;;3.10;99.90;;;;;;5089606;28;20400;-64
2022/01/23 08:41:56;;;;;;;16.92;7.57;;;3.00;99.90;;;;;;5090682;28;20043;-63
2022/01/23 08:44:25;;;;;;;13.35;6.85;;;3.10;99.90;;;;;;5087160;28;20442;-62
2022/01/23 08:46:51;;;;;;;19.30;9.77;;;3.10;99.90;;;;;;5094819;28;20046;-61
2022/01/23 08:49:20;;;;;;;12.63;5.70;;;3.20;99.90;;;;;;5082398;28;20044;-61
2022/01/23 08:51:47;;;;;;;9.00;4.22;;;3.20;99.90;;;;;;5090901;28;20063;-61
2022/01/23 08:54:14;;;;;;;8.40;4.50;;;3.20;99.90;;;;;;5087266;28;20119;-61
2022/01/23 08:56:40;;;;;;;8.93;3.35;;;3.30;99.90;;;;;;5086246;28;20040;-61
2022/01/23 08:59:06;;;;;;;6.13;3.55;;;3.30;99.90;;;;;;5091795;28;20048;-62
2022/01/23 09:01:33;;;;;;;6.85;3.70;;;3.40;99.90;;;;;;5091369;28;20037;-61
2022/01/23 09:03:59;;;;;;;5.47;3.05;;;3.40;99.90;;;;;;5083786;28;20028;-62
2022/01/23 09:06:24;;;;;;;5.90;3.50;;;3.50;99.90;;;;;;5083218;28;20094;-62
2022/01/23 09:08:52;;;;;;;6.85;3.33;;;3.50;99.90;;;;;;5084849;28;21009;-62
2022/01/23 09:14:06;;;;;;;6.40;3.38;;;3.50;99.90;;;;;;5082963;28;20109;-62
2022/01/23 09:16:37;;;;;;;6.43;3.20;;;3.60;99.90;;;;;;5081405;28;20074;-64
2022/01/23 09:19:04;;;;;;;6.05;2.83;;;3.60;99.90;;;;;;5099444;28;20044;-62
2022/01/23 09:21:29;;;;;;;6.18;3.17;;;3.60;99.90;;;;;;5087418;28;20049;-63
2022/01/23 09:23:55;;;;;;;5.95;3.10;;;3.60;99.90;;;;;;5092074;28;20424;-62
2022/01/23 09:26:23;;;;;;;5.15;3.28;;;3.60;99.90;;;;;;5086547;28;20037;-63
2022/01/23 09:28:48;;;;;;;7.65;3.75;;;3.60;99.90;;;;;;5091633;28;20028;-64
2022/01/23 09:31:25;;;;;;;5.85;3.38;;;3.60;99.90;;;;;;5090898;28;20036;-62
2022/01/23 09:33:51;;;;;;;5.50;3.53;;;3.60;99.90;;;;;;5094292;28;20048;-62
2022/01/23 09:36:17;;;;;;;6.97;3.97;;;3.60;99.90;;;;;;5091122;28;20043;-61
2022/01/23 09:38:42;;;;;;;7.90;4.50;;;3.60;99.90;;;;;;5095635;28;20118;-63
2022/01/23 09:41:10;;;;;;;6.50;3.78;;;3.60;99.90;;;;;;5091870;28;20391;-62
2022/01/23 09:43:39;;;;;;;8.45;3.90;;;3.60;99.90;;;;;;5096186;28;20031;-62
2022/01/23 09:46:07;;;;;;;10.02;4.28;;;3.60;99.90;;;;;;5094403;28;20040;-62
2022/01/23 09:48:34;;;;;;;9.32;4.35;;;3.60;99.90;;;;;;5096841;28;20047;-62
2022/01/23 09:51:00;;;;;;;8.63;4.97;;;3.60;99.90;;;;;;5089555;28;20032;-62
2022/01/23 09:53:28;;;;;;;28.83;14.82;;;3.60;99.90;;;;;;5097742;28;20051;-61
2022/01/23 09:55:59;;;;;;;14.98;8.07;;;3.60;99.90;;;;;;5089343;28;20035;-62
2022/01/23 09:58:25;;;;;;;18.42;9.63;;;3.70;99.90;;;;;;5093571;28;20093;-61
2022/01/23 10:00:51;;;;;;;19.70;10.77;;;3.80;99.90;;;;;;5094570;28;20452;-61
2022/01/23 10:03:19;;;;;;;176.10;84.57;;;3.90;99.90;;;;;;5097948;28;20032;-62
2022/01/23 10:05:48;;;;;;;49.08;22.95;;;4.00;99.90;;;;;;5087728;28;20039;-62
2022/01/23 10:08:16;;;;;;;20.30;10.70;;;4.10;99.90;;;;;;5093220;28;20766;-63
2022/01/23 10:10:42;;;;;;;13.70;7.00;;;4.10;99.90;;;;;;5088880;28;20035;-62
2022/01/23 10:13:08;;;;;;;10.65;6.00;;;4.20;99.90;;;;;;5080639;28;20062;-63
2022/01/23 10:15:34;;;;;;;12.40;5.70;;;4.20;99.90;;;;;;5086151;28;20119;-61
2022/01/23 10:18:01;;;;;;;10.18;5.25;;;4.30;99.90;;;;;;5081953;28;20499;-62
2022/01/23 10:20:28;;;;;;;9.52;5.22;;;4.30;99.90;;;;;;5075409;28;20706;-62
2022/01/23 10:22:55;;;;;;;11.25;5.80;;;4.40;99.90;;;;;;5077667;28;20035;-62
2022/01/23 10:25:24;;;;;;;9.57;5.32;;;4.20;99.90;;;;;;5094993;28;20028;-62
2022/01/23 10:28:06;;;;;;;7.88;4.85;;;4.10;99.90;;;;;;5079606;28;20048;-62
2022/01/23 10:30:46;;;;;;;9.48;5.03;;;4.10;99.90;;;;;;5079937;28;20047;-62
2022/01/23 10:33:14;;;;;;;11.70;5.65;;;4.10;99.90;;;;;;5082669;28;20086;-58
2022/01/23 10:36:00;;;;;;;9.38;5.47;;;4.10;99.90;;;;;;5082412;28;20419;-63
2022/01/23 10:38:31;;;;;;;10.32;5.10;;;4.20;99.90;;;;;;5083512;28;20150;-60
2022/01/23 10:49:53;;;;;;;6.82;4.22;;;4.20;99.90;;;;;;5078430;28;20031;-61
2022/01/23 10:52:36;;;;;;;8.10;4.30;;;4.20;99.90;;;;;;5095787;28;20035;-63
2022/01/23 10:55:04;;;;;;;6.38;4.10;;;4.30;99.90;;;;;;5089303;28;20050;-65
2022/01/23 10:57:42;;;;;;;6.68;3.97;;;4.30;99.90;;;;;;5097083;28;20039;-62
2022/01/23 11:00:11;;;;;;;9.15;4.60;;;4.20;99.90;;;;;;5092551;28;20669;-62
2022/01/23 11:02:42;;;;;;;7.72;4.20;;;4.30;99.90;;;;;;5094712;28;20474;-60
2022/01/23 11:05:11;;;;;;;9.18;5.15;;;4.20;99.90;;;;;;5088553;28;20040;-63
2022/01/23 11:07:41;;;;;;;8.70;4.57;;;4.10;99.90;;;;;;5089914;28;20537;-61
2022/01/23 11:10:11;;;;;;;10.75;4.80;;;4.10;99.90;;;;;;5078507;28;20032;-63
2022/01/23 11:17:55;;;;;;;9.95;3.85;;;4.20;99.90;;;;;;5088151;28;20036;-61
2022/01/23 11:20:30;;;;;;;9.23;4.38;;;4.20;99.90;;;;;;5088675;28;20044;-62
2022/01/23 11:23:19;;;;;;;8.60;3.40;;;4.10;99.90;;;;;;5094566;28;20044;-62
2022/01/23 11:26:04;;;;;;;9.07;4.30;;;4.10;99.90;;;;;;5086878;28;20041;-59
2022/01/23 11:28:37;;;;;;;7.47;4.10;;;4.10;99.90;;;;;;5090040;28;20049;-62
2022/01/23 11:31:06;;;;;;;7.28;3.53;;;4.20;99.90;;;;;;5088010;28;20048;-60
2022/01/23 11:33:31;;;;;;;6.43;3.55;;;4.30;99.90;;;;;;5095270;28;20047;-62
2022/01/23 11:35:58;;;;;;;5.65;3.47;;;4.30;99.90;;;;;;5086214;28;20036;-57
2022/01/23 11:38:24;;;;;;;5.32;3.38;;;4.20;99.90;;;;;;5094007;28;20149;-62
2022/01/23 11:54:53;;;;;;;12.88;6.22;;;4.20;99.90;;;;;;5087974;28;20447;-60
2022/01/23 11:57:36;;;;;;;9.10;4.22;;;4.20;99.90;;;;;;5075708;28;20089;-63
2022/01/23 12:00:16;;;;;;;8.90;3.72;;;4.00;99.90;;;;;;5084152;28;20105;-64
2022/01/23 12:02:43;;;;;;;6.28;3.78;;;4.10;99.90;;;;;;5092393;28;20036;-63
2022/01/23 12:05:16;;;;;;;7.40;3.78;;;4.00;99.90;;;;;;5089490;28;20426;-63
2022/01/23 12:07:45;;;;;;;8.10;3.80;;;4.10;99.90;;;;;;5085050;28;20039;-63
2022/01/23 12:10:27;;;;;;;5.95;3.42;;;4.10;99.90;;;;;;5085901;28;20048;-62
2022/01/23 12:13:34;;;;;;;6.32;3.60;;;4.20;99.90;;;;;;5090730;28;20467;-63
2022/01/23 12:18:47;;;;;;;8.43;4.55;;;4.00;99.90;;;;;;5095183;28;20036;-63
2022/01/23 12:21:30;;;;;;;8.20;4.50;;;3.90;99.90;;;;;;5091887;28;20046;-62
2022/01/23 12:24:03;;;;;;;9.23;4.97;;;3.90;99.90;;;;;;5091904;28;20081;-64
2022/01/23 12:26:29;;;;;;;8.30;4.20;;;3.90;99.90;;;;;;5092910;28;20097;-64
2022/01/23 12:28:55;;;;;;;9.55;4.38;;;4.00;99.90;;;;;;5096769;28;20036;-64
2022/01/23 12:31:24;;;;;;;10.32;5.43;;;4.00;99.90;;;;;;5090839;28;20100;-64
2022/01/23 12:33:52;;;;;;;9.77;4.82;;;4.00;99.90;;;;;;5094953;28;20028;-64
2022/01/23 12:36:31;;;;;;;8.13;4.38;;;4.00;99.90;;;;;;5092753;28;20131;-65
2022/01/23 12:39:16;;;;;;;8.25;4.50;;;3.90;99.90;;;;;;5088240;28;20081;-63
2022/01/23 12:41:51;;;;;;;7.35;4.28;;;4.00;99.90;;;;;;5096091;28;20043;-62
2022/01/23 12:44:22;;;;;;;10.55;4.63;;;4.00;99.90;;;;;;5091830;28;20381;-61
2022/01/23 12:46:51;;;;;;;8.60;4.00;;;4.10;99.90;;;;;;5103860;28;20043;-62
2022/01/23 12:49:22;;;;;;;8.40;4.15;;;4.00;99.90;;;;;;5093555;28;20104;-63
2022/01/23 12:52:08;;;;;;;6.72;3.92;;;4.10;99.90;;;;;;5103273;28;20054;-63
2022/01/23 12:54:56;;;;;;;9.15;5.22;;;4.20;99.90;;;;;;5088785;28;20050;-56
2022/01/23 12:57:37;;;;;;;8.38;4.30;;;4.10;99.90;;;;;;5095799;28;20825;-59
2022/01/23 13:00:23;;;;;;;11.27;5.47;;;4.00;99.90;;;;;;5083263;28;20036;-61
2022/01/23 13:02:49;;;;;;;10.43;5.50;;;4.00;99.90;;;;;;5093975;28;20122;-63
2022/01/23 13:05:18;;;;;;;14.30;7.65;;;4.00;99.90;;;;;;5086248;28;20638;-62
2022/01/23 13:13:34;;;;;;;11.07;6.40;;;4.00;99.90;;;;;;5076834;28;20488;-61
2022/01/23 13:19:02;;;;;;;;;;;4.00;99.90;;;;;;5104307;28;20039;-62
2022/01/23 13:30:12;;;;;;;9.25;5.32;;;3.90;99.90;;;;;;5084261;28;20566;-59
2022/01/23 13:32:43;;;;;;;76.70;34.90;;;4.00;99.90;;;;;;5092399;28;20036;-62
2022/01/23 13:35:11;;;;;;;29.65;15.23;;;4.10;99.90;;;;;;5093773;28;20605;-61
2022/01/23 13:37:59;;;;;;;22.85;10.80;;;4.10;99.90;;;;;;5083933;28;20525;-61
2022/01/23 13:40:35;;;;;;;19.25;8.88;;;4.00;99.90;;;;;;5091012;28;20119;-61
2022/01/23 14:04:29;;;;;;;13.63;7.32;;;4.30;99.90;;;;;;5091875;28;20458;-61
2022/01/23 14:06:55;;;;;;;12.20;6.10;;;4.40;99.90;;;;;;5090508;27;20040;-61
2022/01/23 14:09:23;;;;;;;9.77;5.95;;;4.40;99.90;;;;;;5090411;28;20035;-61
2022/01/23 14:11:50;;;;;;;11.10;5.43;;;4.50;99.90;;;;;;5091393;28;20516;-62
2022/01/23 14:14:19;;;;;;;9.98;5.43;;;4.60;99.90;;;;;;5087029;28;20044;-59
2022/01/23 14:16:48;;;;;;;10.77;5.95;;;4.60;99.90;;;;;;5093749;28;20063;-62
2022/01/23 14:19:18;;;;;;;11.63;5.68;;;4.60;99.90;;;;;;5087935;28;20040;-61
2022/01/23 14:21:47;;;;;;;9.00;4.85;;;4.70;99.90;;;;;;5094393;28;20183;-62
2022/01/23 14:24:27;;;;;;;7.90;4.75;;;4.70;99.90;;;;;;5086846;28;20040;-62
2022/01/23 14:26:56;;;;;;;7.05;3.83;;;4.80;99.90;;;;;;5096577;28;20047;-61
2022/01/23 14:29:24;;;;;;;9.15;4.00;;;4.70;99.90;;;;;;5083205;28;20055;-60
2022/01/23 14:32:21;;;;;;;8.00;4.45;;;4.70;99.90;;;;;;5085817;28;20074;-62
2022/01/23 14:34:47;;;;;;;8.88;3.90;;;4.70;99.90;;;;;;5079400;28;20042;-58
2022/01/23 14:37:13;;;;;;;6.25;3.40;;;4.70;99.90;;;;;;5080604;28;20036;-62
2022/01/23 14:39:38;;;;;;;7.80;4.15;;;4.70;99.90;;;;;;5096105;28;20058;-62
2022/01/23 14:42:20;;;;;;;6.07;3.92;;;4.70;99.90;;;;;;5095810;28;20644;-60
2022/01/23 14:44:46;;;;;;;6.57;3.30;;;4.60;99.90;;;;;;5079265;28;20043;-61
2022/01/23 14:47:12;;;;;;;4.95;3.15;;;4.60;99.90;;;;;;5098316;28;20044;-61
2022/01/23 14:49:42;;;;;;;4.03;2.08;;;4.60;99.90;;;;;;5072820;28;20038;-63
2022/01/23 14:52:13;;;;;;;4.65;2.33;;;4.50;99.90;;;;;;5093341;28;20710;-61
2022/01/23 14:54:40;;;;;;;5.57;2.33;;;4.40;99.90;;;;;;5096163;28;20043;-60
2022/01/23 14:57:09;;;;;;;4.25;2.45;;;4.30;99.90;;;;;;5094222;28;20462;-61
2022/01/23 14:59:36;;;;;;;3.67;2.15;;;4.20;99.90;;;;;;5081180;28;20030;-61
2022/01/23 15:02:03;;;;;;;4.75;2.33;;;4.20;99.90;;;;;;5084924;28;20128;-61
2022/01/23 15:04:29;;;;;;;6.22;2.38;;;4.20;99.90;;;;;;5088684;28;20180;-62
2022/01/23 15:06:54;;;;;;;7.22;2.35;;;4.10;99.90;;;;;;5100667;28;20114;-60
2022/01/23 15:09:22;;;;;;;3.90;2.08;;;4.10;99.90;;;;;;5093467;28;20032;-62
2022/01/23 15:11:50;;;;;;;6.38;2.85;;;4.10;99.90;;;;;;5095924;28;20035;-61
2022/01/23 15:14:16;;;;;;;3.50;2.15;;;4.10;99.90;;;;;;5088895;28;20056;-60
2022/01/23 15:16:43;;;;;;;2.88;1.70;;;4.10;99.90;;;;;;5095130;28;20089;-62
2022/01/23 15:19:10;;;;;;;4.65;2.05;;;4.20;99.90;;;;;;5092330;28;20450;-61
2022/01/23 15:21:36;;;;;;;5.25;2.42;;;4.20;99.90;;;;;;5089722;28;20040;-62
2022/01/23 15:24:02;;;;;;;6.97;1.95;;;4.00;99.90;;;;;;5089330;28;20036;-59
2022/01/23 15:26:31;;;;;;;3.20;1.67;;;4.00;99.90;;;;;;5094769;28;20075;-61
2022/01/23 15:28:57;;;;;;;3.30;1.77;;;3.90;99.90;;;;;;5087170;28;20118;-62
2022/01/23 15:31:23;;;;;;;5.10;1.98;;;3.80;99.90;;;;;;5093389;28;20131;-61
2022/01/23 15:33:49;;;;;;;4.03;1.95;;;3.80;99.90;;;;;;5094349;28;20079;-61
2022/01/23 15:36:15;;;;;;;3.95;1.88;;;3.80;99.90;;;;;;5089449;28;20036;-61
2022/01/23 15:38:43;;;;;;;3.08;1.75;;;3.80;99.90;;;;;;5074368;28;20415;-62
2022/01/23 15:41:09;;;;;;;2.15;1.27;;;3.80;99.90;;;;;;5090455;28;20036;-60
2022/01/23 15:43:36;;;;;;;4.07;2.30;;;3.80;99.90;;;;;;5096056;28;20039;-61
2022/01/23 15:46:03;;;;;;;4.63;1.52;;;3.70;99.90;;;;;;5090519;28;20519;-62
2022/01/23 15:48:30;;;;;;;2.38;1.27;;;3.80;99.90;;;;;;5096430;28;20036;-62
2022/01/23 15:50:57;;;;;;;2.95;1.60;;;3.80;99.90;;;;;;5088754;28;20655;-61
2022/01/23 15:53:23;;;;;;;2.30;1.63;;;3.80;99.90;;;;;;5100554;28;20130;-61
2022/01/23 15:55:49;;;;;;;2.13;1.50;;;3.80;99.90;;;;;;5093002;28;20115;-60
2022/01/23 15:58:14;;;;;;;2.60;1.50;;;3.90;99.90;;;;;;5084800;28;20119;-58
2022/01/23 16:00:40;;;;;;;2.38;1.40;;;3.90;99.90;;;;;;5091222;28;20483;-59
2022/01/23 16:03:06;;;;;;;4.20;1.73;;;3.70;99.90;;;;;;5097057;28;20032;-59
2022/01/23 16:05:31;;;;;;;4.20;1.50;;;3.60;99.90;;;;;;5093060;28;21679;-61
2022/01/23 16:07:57;;;;;;;2.55;1.45;;;3.40;99.90;;;;;;5094147;28;20044;-61
2022/01/23 16:10:23;;;;;;;2.55;1.52;;;3.50;99.90;;;;;;5092370;28;20044;-62
2022/01/23 16:12:48;;;;;;;2.10;1.27;;;3.50;99.90;;;;;;5094049;28;20070;-57
2022/01/23 16:15:15;;;;;;;4.90;1.40;;;3.40;99.90;;;;;;5090975;28;20032;-60
2022/01/23 16:17:41;;;;;;;1.85;1.25;;;3.40;99.90;;;;;;5093684;28;20050;-61
2022/01/23 16:20:08;;;;;;;2.53;1.42;;;3.50;99.90;;;;;;5095972;28;20038;-61
2022/01/23 16:22:35;;;;;;;3.30;1.40;;;3.60;99.90;;;;;;5084251;28;20505;-62
2022/01/23 16:25:02;;;;;;;2.55;1.45;;;3.60;99.90;;;;;;5090629;28;20032;-61
2022/01/23 16:27:28;;;;;;;2.08;1.30;;;3.60;99.90;;;;;;5100141;28;20040;-62
2022/01/23 16:29:53;;;;;;;3.50;1.55;;;3.60;99.90;;;;;;5088054;28;20044;-62
2022/01/23 16:32:19;;;;;;;3.80;1.63;;;3.60;99.90;;;;;;5072419;28;20040;-62
2022/01/23 16:34:45;;;;;;;1.85;1.05;;;3.60;99.90;;;;;;5088459;28;20066;-62
2022/01/23 16:37:10;;;;;;;12.68;7.40;;;3.60;99.90;;;;;;5090029;28;20036;-62
2022/01/23 16:39:36;;;;;;;8.82;3.70;;;3.60;99.90;;;;;;5095940;28;20490;-60
2022/01/23 16:42:02;;;;;;;3.50;1.90;;;3.70;99.90;;;;;;5092013;28;20472;-59
2022/01/23 16:44:28;;;;;;;5.40;1.63;;;3.70;99.90;;;;;;5093322;28;20043;-62